createdAt,value
2018-10-03T00:00:30.507Z,10.48
2018-10-03T00:02:59.207Z,10.47
2018-10-03T00:05:27.909Z,10.52
2018-10-03T00:07:56.988Z,10.51
2018-10-03T00:10:26.133Z,10.46
2018-10-03T00:12:55.039Z,10.45
2018-10-03T00:15:23.784Z,10.46
2018-10-03T00:17:54.118Z,10.44
2018-10-03T00:20:22.748Z,10.44
2018-10-03T00:22:52.276Z,10.40
2018-10-03T00:25:21.644Z,10.35
2018-10-03T00:27:50.819Z,10.34
2018-10-03T00:30:20.057Z,10.31
2018-10-03T00:32:49.084Z,10.31
2018-10-03T00:35:18.547Z,10.26
2018-10-03T00:37:47.672Z,10.23
2018-10-03T00:40:16.557Z,10.17
2018-10-03T00:42:46.258Z,10.15
2018-10-03T00:45:15.059Z,10.14
2018-10-03T00:47:43.852Z,10.08
2018-10-03T00:50:13.814Z,10.00
2018-10-03T00:52:42.992Z,9.90
2018-10-03T00:55:12.692Z,9.77
2018-10-03T00:57:41.697Z,9.73
2018-10-03T01:00:10.822Z,9.78
2018-10-03T01:02:39.864Z,9.78
2018-10-03T01:05:09.459Z,9.90
2018-10-03T01:07:38.363Z,10.06
2018-10-03T01:10:08.530Z,10.18
2018-10-03T01:12:37.402Z,10.25
2018-10-03T01:15:06.183Z,10.32
2018-10-03T01:17:35.232Z,10.30
2018-10-03T01:20:04.340Z,10.27
2018-10-03T01:22:33.437Z,10.28
2018-10-03T01:25:02.034Z,10.32
2018-10-03T01:27:31.254Z,10.37
2018-10-03T01:30:01.350Z,10.40
2018-10-03T01:32:31.788Z,10.43
2018-10-03T01:35:01.714Z,10.51
2018-10-03T01:37:30.954Z,10.55
2018-10-03T01:40:00.061Z,10.57
2018-10-03T01:42:29.436Z,10.60
2018-10-03T01:44:58.649Z,10.60
2018-10-03T01:47:27.972Z,10.59
2018-10-03T01:49:56.827Z,10.58
2018-10-03T01:52:25.544Z,10.55
2018-10-03T01:54:54.322Z,10.55
2018-10-03T01:57:23.779Z,10.57
2018-10-03T01:59:53.019Z,10.59
2018-10-03T02:02:22.131Z,10.61
2018-10-03T02:04:51.353Z,10.62
2018-10-03T02:07:20.273Z,10.62
2018-10-03T02:09:49.034Z,10.64
2018-10-03T02:12:19.070Z,10.63
2018-10-03T02:14:48.534Z,10.65
2018-10-03T02:17:17.873Z,10.62
2018-10-03T02:19:46.781Z,10.60
2018-10-03T02:22:16.967Z,10.57
2018-10-03T02:24:45.853Z,10.50
2018-10-03T02:27:15.511Z,10.44
2018-10-03T02:29:44.772Z,10.42
2018-10-03T02:32:13.486Z,10.42
2018-10-03T02:34:43.123Z,10.40
2018-10-03T02:37:11.948Z,10.40
2018-10-03T02:39:40.694Z,10.38
2018-10-03T02:42:10.832Z,10.35
2018-10-03T02:44:39.867Z,10.33
2018-10-03T02:47:09.373Z,10.33
2018-10-03T02:49:38.495Z,10.38
2018-10-03T02:52:07.933Z,10.39
2018-10-03T02:54:37.729Z,10.42
2018-10-03T02:57:07.063Z,10.50
2018-10-03T02:59:36.255Z,10.59
2018-10-03T03:02:05.357Z,10.60
2018-10-03T03:04:34.389Z,10.64
2018-10-03T03:07:03.925Z,10.68
2018-10-03T03:09:32.789Z,10.70
2018-10-03T03:12:02.326Z,10.72
2018-10-03T03:14:31.301Z,10.73
2018-10-03T03:17:00.063Z,10.73
2018-10-03T03:19:29.009Z,10.73
2018-10-03T03:21:58.446Z,10.71
2018-10-03T03:24:27.130Z,10.67
2018-10-03T03:26:55.918Z,10.64
2018-10-03T03:29:24.921Z,10.57
2018-10-03T03:31:54.218Z,10.50
2018-10-03T03:34:22.993Z,10.43
2018-10-03T03:36:51.835Z,10.46
2018-10-03T03:39:21.188Z,10.46
2018-10-03T03:41:50.165Z,10.49
2018-10-03T03:44:19.008Z,10.49
2018-10-03T03:46:48.543Z,10.47
2018-10-03T03:49:17.676Z,10.43
2018-10-03T03:51:47.118Z,10.38
2018-10-03T03:54:16.064Z,10.31
2018-10-03T03:56:44.723Z,10.22
2018-10-03T03:59:14.579Z,10.20
2018-10-03T04:01:43.991Z,10.19
2018-10-03T04:04:14.178Z,10.19
2018-10-03T04:06:43.297Z,10.19
2018-10-03T04:09:12.553Z,10.23
2018-10-03T04:11:41.803Z,10.26
2018-10-03T04:14:10.985Z,10.28
2018-10-03T04:16:39.798Z,10.32
2018-10-03T04:19:08.427Z,10.37
2018-10-03T04:21:40.175Z,10.37
2018-10-03T04:24:09.964Z,10.36
2018-10-03T04:26:39.662Z,10.37
2018-10-03T04:29:09.271Z,10.38
2018-10-03T04:31:38.083Z,10.42
2018-10-03T04:34:07.837Z,10.45
2018-10-03T04:36:36.723Z,10.43
2018-10-03T04:39:07.364Z,10.43
2018-10-03T04:41:36.892Z,10.43
2018-10-03T04:44:05.600Z,10.44
2018-10-03T04:46:34.728Z,10.42
2018-10-03T04:49:04.616Z,10.44
2018-10-03T04:51:33.270Z,10.43
2018-10-03T04:54:02.680Z,10.45
2018-10-03T04:56:31.664Z,10.47
2018-10-03T04:59:00.633Z,10.47
2018-10-03T05:01:29.409Z,10.49
2018-10-03T05:03:58.100Z,10.51
2018-10-03T05:06:26.705Z,10.54
2018-10-03T05:08:55.874Z,10.58
2018-10-03T05:11:24.703Z,10.61
2018-10-03T05:13:53.313Z,10.64
2018-10-03T05:16:22.323Z,10.65
2018-10-03T05:18:50.966Z,10.68
2018-10-03T05:21:19.984Z,10.69
2018-10-03T05:23:50.245Z,10.67
2018-10-03T05:26:18.798Z,10.64
2018-10-03T05:28:47.679Z,10.61
2018-10-03T05:31:16.349Z,10.58
2018-10-03T05:33:45.345Z,10.58
2018-10-03T05:36:14.023Z,10.55
2018-10-03T05:38:42.751Z,10.54
2018-10-03T05:41:11.700Z,10.55
2018-10-03T05:43:41.238Z,10.55
2018-10-03T05:46:10.569Z,10.57
2018-10-03T05:48:39.576Z,10.56
2018-10-03T05:51:08.615Z,10.54
2018-10-03T05:53:37.491Z,10.54
2018-10-03T05:56:06.326Z,10.52
2018-10-03T05:58:35.499Z,10.51
2018-10-03T06:01:05.234Z,10.54
2018-10-03T06:03:33.945Z,10.53
2018-10-03T06:06:02.725Z,10.54
2018-10-03T06:08:32.300Z,10.53
2018-10-03T06:11:01.046Z,10.55
2018-10-03T06:13:29.817Z,10.55
2018-10-03T06:15:59.585Z,10.59
2018-10-03T06:18:29.331Z,10.58
2018-10-03T06:20:58.355Z,10.60
2018-10-03T06:23:27.514Z,10.61
2018-10-03T06:25:56.353Z,10.63
2018-10-03T06:28:25.289Z,10.64
2018-10-03T06:30:54.173Z,10.66
2018-10-03T06:33:24.763Z,10.66
2018-10-03T06:35:53.841Z,10.67
2018-10-03T06:38:22.624Z,10.69
2018-10-03T06:40:52.249Z,10.72
2018-10-03T06:43:21.529Z,10.74
2018-10-03T06:45:51.045Z,10.76
2018-10-03T06:48:19.838Z,10.77
2018-10-03T06:50:48.724Z,10.81
2018-10-03T06:53:18.319Z,10.82
2018-10-03T06:55:47.118Z,10.84
2018-10-03T06:58:15.921Z,10.86
2018-10-03T07:00:44.884Z,10.88
2018-10-03T07:03:13.954Z,10.90
2018-10-03T07:05:42.884Z,10.94
2018-10-03T07:08:11.684Z,10.98
2018-10-03T07:10:40.891Z,11.00
2018-10-03T07:13:11.224Z,11.03
2018-10-03T07:15:40.195Z,11.04
2018-10-03T07:18:09.573Z,11.07
2018-10-03T07:20:38.690Z,11.14
2018-10-03T07:23:08.308Z,11.16
2018-10-03T07:25:38.530Z,11.16
2018-10-03T07:28:07.641Z,11.14
2018-10-03T07:30:36.639Z,11.11
2018-10-03T07:33:05.484Z,11.14
2018-10-03T07:35:35.149Z,11.08
2018-10-03T07:38:04.484Z,10.99
2018-10-03T07:40:33.654Z,10.99
2018-10-03T07:43:03.399Z,10.96
2018-10-03T07:45:33.213Z,10.97
2018-10-03T07:48:02.347Z,10.92
2018-10-03T07:50:31.699Z,10.97
2018-10-03T07:53:00.879Z,10.99
2018-10-03T07:55:29.947Z,11.00
2018-10-03T07:57:59.144Z,11.05
2018-10-03T08:00:31.430Z,11.05
2018-10-03T08:03:01.525Z,10.98
2018-10-03T08:05:31.817Z,11.07
2018-10-03T08:08:00.859Z,11.20
2018-10-03T08:10:30.090Z,11.38
2018-10-03T08:12:59.521Z,11.61
2018-10-03T08:15:28.671Z,11.87
2018-10-03T08:17:57.801Z,12.06
2018-10-03T08:20:28.002Z,12.26
2018-10-03T08:22:57.947Z,12.46
2018-10-03T08:25:27.551Z,12.84
2018-10-03T08:27:56.899Z,13.26
2018-10-03T08:30:25.845Z,13.47
2018-10-03T08:32:55.103Z,13.57
2018-10-03T08:35:24.305Z,13.56
2018-10-03T08:37:53.926Z,13.52
2018-10-03T08:40:22.955Z,13.42
2018-10-03T08:42:52.061Z,13.32
2018-10-03T08:45:21.304Z,13.24
2018-10-03T08:47:51.341Z,13.30
2018-10-03T08:50:20.782Z,13.43
2018-10-03T08:52:49.691Z,13.51
2018-10-03T08:55:19.053Z,13.59
2018-10-03T08:57:48.690Z,13.71
2018-10-03T09:00:18.678Z,13.77
2018-10-03T09:02:47.700Z,13.74
2018-10-03T09:05:17.116Z,13.80
2018-10-03T09:07:46.545Z,13.88
2018-10-03T09:10:18.412Z,13.97
2018-10-03T09:12:47.667Z,13.97
2018-10-03T09:15:16.927Z,14.11
2018-10-03T09:17:46.045Z,14.27
2018-10-03T09:20:15.198Z,14.31
2018-10-03T09:22:44.651Z,14.39
2018-10-03T09:25:13.764Z,14.56
2018-10-03T09:27:42.930Z,14.65
2018-10-03T09:30:12.246Z,14.56
2018-10-03T09:32:43.171Z,14.58
2018-10-03T09:35:12.526Z,14.78
2018-10-03T09:37:41.777Z,14.96
2018-10-03T09:40:11.073Z,15.11
2018-10-03T09:42:40.245Z,15.28
2018-10-03T09:45:10.562Z,15.34
2018-10-03T09:47:40.037Z,15.35
2018-10-03T09:50:10.848Z,15.41
2018-10-03T09:52:41.072Z,15.51
2018-10-03T09:55:11.125Z,15.67
2018-10-03T09:57:40.331Z,15.81
2018-10-03T10:00:09.705Z,15.84
2018-10-03T10:02:38.867Z,16.06
2018-10-03T10:05:08.212Z,16.43
2018-10-03T10:07:37.347Z,17.05
2018-10-03T10:10:06.596Z,17.13
2018-10-03T10:12:35.736Z,17.84
2018-10-03T10:15:05.233Z,18.61
2018-10-03T10:17:34.564Z,19.46
2018-10-03T10:20:03.507Z,19.86
2018-10-03T10:22:32.735Z,19.98
2018-10-03T10:25:02.760Z,20.06
2018-10-03T10:27:31.856Z,20.42
2018-10-03T10:30:01.031Z,20.33
2018-10-03T10:32:33.310Z,20.70
2018-10-03T10:35:02.552Z,21.30
2018-10-03T10:37:31.896Z,21.63
2018-10-03T10:40:01.983Z,22.03
2018-10-03T10:42:31.412Z,22.39
2018-10-03T10:45:00.950Z,22.07
2018-10-03T10:47:30.415Z,22.30
2018-10-03T10:50:00.718Z,23.30
2018-10-03T10:52:30.156Z,24.38
2018-10-03T10:54:59.318Z,25.18
2018-10-03T10:57:28.365Z,25.43
2018-10-03T10:59:58.210Z,25.65
2018-10-03T11:02:28.021Z,25.44
2018-10-03T11:04:57.168Z,25.35
2018-10-03T11:07:26.172Z,25.03
2018-10-03T11:09:55.366Z,25.28
2018-10-03T11:12:25.946Z,25.55
2018-10-03T11:14:55.861Z,26.54
2018-10-03T11:17:26.172Z,27.74
2018-10-03T11:19:55.359Z,28.65
2018-10-03T11:22:24.482Z,29.05
2018-10-03T11:24:53.900Z,29.06
2018-10-03T11:27:23.616Z,26.85
2018-10-03T11:29:52.306Z,25.62
2018-10-03T11:32:22.371Z,23.87
2018-10-03T11:34:51.723Z,22.87
2018-10-03T11:37:20.900Z,21.76
2018-10-03T11:39:49.972Z,21.34
2018-10-03T11:42:18.891Z,21.06
2018-10-03T11:44:48.442Z,21.26
2018-10-03T11:47:17.816Z,21.52
2018-10-03T11:49:46.895Z,21.04
2018-10-03T11:52:15.626Z,20.73
2018-10-03T11:54:44.522Z,20.70
2018-10-03T11:57:14.777Z,20.62
2018-10-03T11:59:43.851Z,20.12
2018-10-03T12:02:13.177Z,19.64
2018-10-03T12:04:42.897Z,19.38
2018-10-03T12:07:11.701Z,19.08
2018-10-03T12:09:40.828Z,19.21
2018-10-03T12:12:10.102Z,19.06
2018-10-03T12:14:39.217Z,19.27
2018-10-03T12:17:08.531Z,19.33
2018-10-03T12:19:37.751Z,19.16
2018-10-03T12:22:06.759Z,18.84
2018-10-03T12:24:36.045Z,18.53
2018-10-03T12:27:05.256Z,18.43
2018-10-03T12:29:34.670Z,18.19
2018-10-03T12:32:03.741Z,18.55
2018-10-03T12:34:32.837Z,18.88
2018-10-03T12:37:01.657Z,19.29
2018-10-03T12:39:30.390Z,19.45
2018-10-03T12:41:59.787Z,19.43
2018-10-03T12:44:28.846Z,19.54
2018-10-03T12:46:58.804Z,19.48
2018-10-03T12:49:27.656Z,19.21
2018-10-03T12:51:56.366Z,18.97
2018-10-03T12:54:25.881Z,18.56
2018-10-03T12:56:55.961Z,18.30
2018-10-03T12:59:25.090Z,18.20
2018-10-03T13:01:54.100Z,18.27
2018-10-03T13:04:23.625Z,18.44
2018-10-03T13:06:53.108Z,18.64
2018-10-03T13:09:22.124Z,18.97
2018-10-03T13:11:51.196Z,19.78
2018-10-03T13:14:20.344Z,21.10
2018-10-03T13:16:49.797Z,22.06
2018-10-03T13:19:18.567Z,21.94
2018-10-03T13:21:47.202Z,21.44
2018-10-03T13:24:15.930Z,20.92
2018-10-03T13:26:45.797Z,20.41
2018-10-03T13:29:14.819Z,20.08
2018-10-03T13:31:43.778Z,19.62
2018-10-03T13:34:12.480Z,19.22
2018-10-03T13:36:41.647Z,18.93
2018-10-03T13:39:11.372Z,18.72
2018-10-03T13:41:41.158Z,18.09
2018-10-03T13:44:10.287Z,17.86
2018-10-03T13:46:39.523Z,17.62
2018-10-03T13:49:08.802Z,17.51
2018-10-03T13:51:38.019Z,17.58
2018-10-03T13:54:07.428Z,17.53
2018-10-03T13:56:36.391Z,17.83
2018-10-03T13:59:06.166Z,18.08
2018-10-03T14:01:35.935Z,18.14
2018-10-03T14:04:05.213Z,18.28
2018-10-03T14:06:34.229Z,18.36
2018-10-03T14:09:03.323Z,18.24
2018-10-03T14:11:33.392Z,18.02
2018-10-03T14:14:03.015Z,17.94
2018-10-03T14:16:32.328Z,17.93
2018-10-03T14:19:01.433Z,17.71
2018-10-03T14:21:30.557Z,17.58
2018-10-03T14:23:59.843Z,17.58
2018-10-03T14:26:29.839Z,17.65
2018-10-03T14:28:59.413Z,17.72
2018-10-03T14:31:28.518Z,17.82
2018-10-03T14:33:57.211Z,17.87
2018-10-03T14:36:26.029Z,18.14
2018-10-03T14:38:55.028Z,18.17
2018-10-03T14:41:24.235Z,17.91
2018-10-03T14:43:53.152Z,18.22
2018-10-03T14:46:22.664Z,18.40
2018-10-03T14:48:52.149Z,18.48
2018-10-03T14:51:21.076Z,18.28
2018-10-03T14:53:50.377Z,18.48
2018-10-03T14:56:19.587Z,18.38
2018-10-03T14:58:48.956Z,18.41
2018-10-03T15:01:18.064Z,18.25
2018-10-03T15:03:47.233Z,18.26
2018-10-03T15:06:16.502Z,18.07
2018-10-03T15:08:46.558Z,17.86
2018-10-03T15:11:15.508Z,17.67
2018-10-03T15:13:44.178Z,17.52
2018-10-03T15:16:13.152Z,17.44
2018-10-03T15:18:42.640Z,17.46
2018-10-03T15:21:11.868Z,17.37
2018-10-03T15:23:41.137Z,17.28
2018-10-03T15:26:10.161Z,17.15
2018-10-03T15:28:39.496Z,16.88
2018-10-03T15:31:08.953Z,16.77
2018-10-03T15:33:38.775Z,16.58
2018-10-03T15:36:08.150Z,16.62
2018-10-03T15:38:37.555Z,16.68
2018-10-03T15:41:06.530Z,16.63
2018-10-03T15:43:35.962Z,16.55
2018-10-03T15:46:04.988Z,16.39
2018-10-03T15:48:33.868Z,16.35
2018-10-03T15:51:02.782Z,16.33
2018-10-03T15:53:31.733Z,16.17
2018-10-03T15:56:01.165Z,16.10
2018-10-03T15:58:31.271Z,16.13
2018-10-03T16:01:00.375Z,16.16
2018-10-03T16:03:29.628Z,16.14
2018-10-03T16:05:58.808Z,16.02
2018-10-03T16:08:28.024Z,15.96
2018-10-03T16:10:57.198Z,15.85
2018-10-03T16:13:26.299Z,15.82
2018-10-03T16:15:55.769Z,15.75
2018-10-03T16:18:24.840Z,15.67
2018-10-03T16:20:53.816Z,15.59
2018-10-03T16:23:23.411Z,15.51
2018-10-03T16:25:52.112Z,15.43
2018-10-03T16:28:21.824Z,15.31
2018-10-03T16:30:51.061Z,15.20
2018-10-03T16:33:20.277Z,15.08
2018-10-03T16:35:49.070Z,14.91
2018-10-03T16:38:19.122Z,14.77
2018-10-03T16:40:47.944Z,14.73
2018-10-03T16:43:17.189Z,14.61
2018-10-03T16:45:46.272Z,14.58
2018-10-03T16:48:15.120Z,14.54
2018-10-03T16:50:45.364Z,14.50
2018-10-03T16:53:14.082Z,14.40
2018-10-03T16:55:43.038Z,14.35
2018-10-03T16:58:11.964Z,14.35
2018-10-03T17:00:41.007Z,14.25
2018-10-03T17:03:09.959Z,14.30
2018-10-03T17:05:38.768Z,14.24
2018-10-03T17:08:08.388Z,14.14
2018-10-03T17:10:38.442Z,13.95
2018-10-03T17:13:07.849Z,13.81
2018-10-03T17:15:37.610Z,13.65
2018-10-03T17:18:07.142Z,13.44
2018-10-03T17:20:36.408Z,13.30
2018-10-03T17:23:05.748Z,13.25
2018-10-03T17:25:34.794Z,13.21
2018-10-03T17:28:03.723Z,13.15
2018-10-03T17:30:33.428Z,13.10
2018-10-03T17:33:03.574Z,12.99
2018-10-03T17:35:32.770Z,12.91
2018-10-03T17:38:02.972Z,12.85
2018-10-03T17:40:32.312Z,12.70
2018-10-03T17:43:01.643Z,12.64
2018-10-03T17:45:30.880Z,12.56
2018-10-03T17:47:59.873Z,12.49
2018-10-03T17:50:29.004Z,12.38
2018-10-03T17:52:58.345Z,12.25
2018-10-03T17:55:27.250Z,12.19
2018-10-03T17:57:56.703Z,12.14
2018-10-03T18:00:25.720Z,12.06
2018-10-03T18:02:54.890Z,11.99
2018-10-03T18:05:23.584Z,11.93
2018-10-03T18:07:52.597Z,11.90
2018-10-03T18:10:21.769Z,11.89
2018-10-03T18:12:51.083Z,11.79
2018-10-03T18:15:20.255Z,11.66
2018-10-03T18:17:49.135Z,11.56
2018-10-03T18:20:17.868Z,11.59
2018-10-03T18:22:47.128Z,11.51
2018-10-03T18:25:15.809Z,11.39
2018-10-03T18:27:46.426Z,11.22
2018-10-03T18:30:15.860Z,11.14
2018-10-03T18:32:45.035Z,11.07
2018-10-03T18:35:14.279Z,10.96
2018-10-03T18:37:43.663Z,10.85
2018-10-03T18:40:12.928Z,10.75
2018-10-03T18:42:42.116Z,10.77
2018-10-03T18:45:11.554Z,10.62
2018-10-03T18:47:40.691Z,10.59
2018-10-03T18:50:11.493Z,10.59
2018-10-03T18:52:40.910Z,10.48
2018-10-03T18:55:10.424Z,10.45
2018-10-03T18:57:41.203Z,10.40
2018-10-03T19:00:10.668Z,10.23
2018-10-03T19:02:40.154Z,10.15
2018-10-03T19:05:11.084Z,10.20
2018-10-03T19:07:41.185Z,10.11
2018-10-03T19:10:10.427Z,10.08
2018-10-03T19:12:40.042Z,10.04
2018-10-03T19:15:10.115Z,9.94
2018-10-03T19:17:39.244Z,9.85
2018-10-03T19:20:10.430Z,9.80
2018-10-03T19:22:40.015Z,9.71
2018-10-03T19:25:09.661Z,9.64
2018-10-03T19:27:39.093Z,9.56
2018-10-03T19:30:09.329Z,9.55
2018-10-03T19:32:38.884Z,9.48
2018-10-03T19:35:08.176Z,9.39
2018-10-03T19:37:37.662Z,9.35
2018-10-03T19:40:06.940Z,9.40
2018-10-03T19:42:36.114Z,9.36
2018-10-03T19:45:05.349Z,9.31
2018-10-03T19:47:34.308Z,9.22
2018-10-03T19:50:03.473Z,9.22
2018-10-03T19:52:32.789Z,9.22
2018-10-03T19:55:02.303Z,9.20
2018-10-03T19:57:31.244Z,9.17
2018-10-03T20:00:00.601Z,9.18
2018-10-03T20:02:29.545Z,9.11
2018-10-03T20:04:58.753Z,9.11
2018-10-03T20:07:28.023Z,9.04
2018-10-03T20:09:57.492Z,9.03
2018-10-03T20:12:26.621Z,9.02
2018-10-03T20:14:56.619Z,9.00
2018-10-03T20:17:25.925Z,8.96
2018-10-03T20:19:55.904Z,8.97
2018-10-03T20:22:24.990Z,8.95
2018-10-03T20:24:54.118Z,8.89
2018-10-03T20:27:24.066Z,8.85
2018-10-03T20:29:52.961Z,8.79
2018-10-03T20:32:22.122Z,8.80
2018-10-03T20:34:50.978Z,8.79
2018-10-03T20:37:20.874Z,8.75
2018-10-03T20:39:49.817Z,8.69
2018-10-03T20:42:18.708Z,8.62
2018-10-03T20:44:47.615Z,8.57
2018-10-03T20:47:16.574Z,8.51
2018-10-03T20:49:45.643Z,8.49
2018-10-03T20:52:15.032Z,8.43
2018-10-03T20:54:44.098Z,8.42
2018-10-03T20:57:13.263Z,8.40
2018-10-03T20:59:42.885Z,8.44
2018-10-03T21:02:11.821Z,8.40
2018-10-03T21:04:40.601Z,8.36
2018-10-03T21:07:09.663Z,8.27
2018-10-03T21:09:38.465Z,8.23
2018-10-03T21:12:07.759Z,8.19
2018-10-03T21:14:37.069Z,8.21
2018-10-03T21:17:06.131Z,8.15
2018-10-03T21:19:35.359Z,8.09
2018-10-03T21:22:04.754Z,8.05
2018-10-03T21:24:33.842Z,8.01
2018-10-03T21:27:02.905Z,7.94
2018-10-03T21:29:32.258Z,7.86
2018-10-03T21:32:01.422Z,7.79
2018-10-03T21:34:30.915Z,7.83
2018-10-03T21:37:00.061Z,7.83
2018-10-03T21:39:29.250Z,7.85
2018-10-03T21:41:58.574Z,7.83
2018-10-03T21:44:27.578Z,7.76
2018-10-03T21:46:57.048Z,7.71
2018-10-03T21:49:26.105Z,7.71
2018-10-03T21:51:55.235Z,7.76
2018-10-03T21:54:24.066Z,7.74
2018-10-03T21:56:52.845Z,7.72
2018-10-03T21:59:22.019Z,7.67
2018-10-03T22:01:52.343Z,7.67
2018-10-03T22:04:21.016Z,7.75
2018-10-03T22:06:50.591Z,7.79
2018-10-03T22:09:19.521Z,7.81
2018-10-03T22:11:48.240Z,7.84
2018-10-03T22:14:17.188Z,7.83
2018-10-03T22:16:46.693Z,7.79
2018-10-03T22:19:15.976Z,7.76
2018-10-03T22:21:44.979Z,7.78
2018-10-03T22:24:13.998Z,7.75
2018-10-03T22:26:43.595Z,7.68
2018-10-03T22:29:12.467Z,7.66
2018-10-03T22:31:41.888Z,7.67
2018-10-03T22:34:10.661Z,7.55
2018-10-03T22:36:40.290Z,7.49
2018-10-03T22:39:09.900Z,7.36
2018-10-03T22:41:38.701Z,7.36
2018-10-03T22:44:07.971Z,7.33
2018-10-03T22:46:36.872Z,7.27
2018-10-03T22:49:06.504Z,7.18
2018-10-03T22:51:35.261Z,7.18
2018-10-03T22:54:04.065Z,7.21
2018-10-03T22:56:33.074Z,7.19
2018-10-03T22:59:02.185Z,7.27
2018-10-03T23:01:31.065Z,7.35
2018-10-03T23:03:59.795Z,7.44
2018-10-03T23:06:29.009Z,7.51
2018-10-03T23:08:58.190Z,7.57
2018-10-03T23:11:26.886Z,7.64
2018-10-03T23:13:55.754Z,7.70
2018-10-03T23:16:25.119Z,7.80
2018-10-03T23:18:55.318Z,7.85
2018-10-03T23:21:24.385Z,7.90
2018-10-03T23:23:53.639Z,7.96
2018-10-03T23:26:22.769Z,8.03
2018-10-03T23:28:51.849Z,8.06
2018-10-03T23:31:21.460Z,8.10
2018-10-03T23:33:50.344Z,8.08
2018-10-03T23:36:19.319Z,8.14
2018-10-03T23:38:48.024Z,8.16
2018-10-03T23:41:17.339Z,8.17
2018-10-03T23:43:45.966Z,8.16
2018-10-03T23:46:14.814Z,8.18
2018-10-03T23:48:43.486Z,8.18
2018-10-03T23:51:13.081Z,8.21
2018-10-03T23:53:42.162Z,8.22
2018-10-03T23:56:11.024Z,8.23
2018-10-03T23:58:39.779Z,8.25
